Heniches'K, Ukraine
Current Conditions -  °F | °C
As of 10:00 AM on Monday 22 Dec 2014 (Local Time) from URFF Reporting Station
Broken Clouds Broken Clouds  
Wind Chill: 30°   Ceiling: 4600
Heat Index: 34°   Visibility: 6mi
Dew Point: 32°   Wind: 4mph
Humidity: 93%   Direction: 210°SSW
Pressure: 30.15"   Gusts: NA
Location:  46.17°N, 34.81°E
Report Text: URFF 220700Z 21002MPS 9999 BKN046 01/M00 Q1021 19290257 NOSIG
Loading
Personal Weather Stations






























Interactive Weather Map New forecast layout! Learn more

10-Day Weather Forecast

Advertisements
Track Severe Weather on mobile